Time,TemperatureF,DewpointF,PressureIn,WindDirection,WindDirectionDegrees,WindSpeedMPH,WindSpeedGustMPH,Humidity,HourlyPrecipIn,Conditions,Clouds,dailyrainin,SolarRadiationWatts/m^2,SoftwareType,DateUTC
2013-03-16 00:00:00,71.4,-8.0,29.98,NNW,332,0.0,0.0,4,0.00,,,0.00,0,weatherlink.com 1.10,2013-03-16 04:00:00,
2013-03-16 00:15:00,70.8,-99.9,29.98,NNW,332,0.0,0.0,0,0.00,,,0.00,0,weatherlink.com 1.10,2013-03-16 04:15:00,
2013-03-16 00:30:00,70.7,-99.9,29.98,NNW,333,0.0,0.0,0,0.00,,,0.00,0,weatherlink.com 1.10,2013-03-16 04:30:00,
2013-03-16 00:45:00,70.5,-99.9,29.97,NNW,333,0.0,0.0,0,0.00,,,0.00,0,weatherlink.com 1.10,2013-03-16 04:45:00,
2013-03-16 01:00:00,70.2,-99.9,29.96,NNW,333,0.0,0.0,0,0.00,,,0.00,0,weatherlink.com 1.10,2013-03-16 05:00:00,
2013-03-16 01:15:00,70.0,-99.9,29.96,NNW,333,0.0,0.0,0,0.00,,,0.00,0,weatherlink.com 1.10,2013-03-16 05:15:00,
2013-03-16 01:30:00,69.6,-99.9,29.95,NNW,333,0.0,0.0,0,0.00,,,0.00,0,weatherlink.com 1.10,2013-03-16 05:30:00,
2013-03-16 01:45:00,69.7,-99.9,29.95,NNW,333,2.0,3.0,0,0.00,,,0.00,0,weatherlink.com 1.10,2013-03-16 05:45:00,
2013-03-16 02:00:00,68.6,-99.9,29.95,NNW,333,0.0,2.0,0,0.00,,,0.00,0,weatherlink.com 1.10,2013-03-16 06:00:00,
2013-03-16 02:15:00,66.8,-99.9,29.95,NNW,333,3.0,3.0,0,0.00,,,0.00,0,weatherlink.com 1.10,2013-03-16 06:15:00,
2013-03-16 02:31:00,66.2,-99.9,29.95,NNW,333,0.0,2.0,0,0.00,,,0.00,0,weatherlink.com 1.10,2013-03-16 06:31:00,
2013-03-16 02:45:00,67.5,-99.9,29.94,NNW,333,1.0,2.0,0,0.00,,,0.00,0,weatherlink.com 1.10,2013-03-16 06:45:00,
2013-03-16 03:00:00,68.2,-99.9,29.93,NNW,333,0.0,1.0,0,0.00,,,0.00,0,weatherlink.com 1.10,2013-03-16 07:00:00,
2013-03-16 03:16:00,67.9,-99.9,29.93,NNW,332,0.0,1.0,0,0.00,,,0.00,0,weatherlink.com 1.10,2013-03-16 07:16:00,
2013-03-16 03:31:00,67.6,-99.9,29.93,NNW,333,0.0,1.0,0,0.00,,,0.00,0,weatherlink.com 1.10,2013-03-16 07:31:00,
2013-03-16 03:46:00,65.8,-99.9,29.93,NNW,332,0.0,1.0,0,0.00,,,0.00,0,weatherlink.com 1.10,2013-03-16 07:46:00,
2013-03-16 04:16:00,64.1,-99.9,29.94,NNW,333,0.0,3.0,0,0.00,,,0.00,0,weatherlink.com 1.10,2013-03-16 08:16:00,
2013-03-16 04:31:00,64.0,-99.9,29.93,NNW,333,0.0,3.0,0,0.00,,,0.00,0,weatherlink.com 1.10,2013-03-16 08:31:00,
2013-03-16 04:46:00,64.3,-99.9,29.93,NNW,333,0.0,2.0,0,0.00,,,0.00,0,weatherlink.com 1.10,2013-03-16 08:46:00,
2013-03-16 05:01:00,64.9,-99.9,29.93,NNW,332,0.0,0.0,0,0.00,,,0.00,0,weatherlink.com 1.10,2013-03-16 09:01:00,
2013-03-16 05:16:00,65.1,-99.9,29.94,NNW,332,0.0,0.0,0,0.00,,,0.00,0,weatherlink.com 1.10,2013-03-16 09:16:00,
2013-03-16 05:31:00,64.9,-99.9,29.94,NNW,333,0.0,2.0,0,0.00,,,0.00,0,weatherlink.com 1.10,2013-03-16 09:31:00,
2013-03-16 05:46:00,64.7,-99.9,29.95,NNW,332,2.0,2.0,0,0.00,,,0.00,0,weatherlink.com 1.10,2013-03-16 09:46:00,
2013-03-16 06:01:00,65.4,-99.9,29.95,West,274,2.0,4.0,0,0.00,,,0.00,0,weatherlink.com 1.10,2013-03-16 10:01:00,
2013-03-16 06:17:00,65.9,-99.9,29.95,West,274,1.0,3.0,0,0.00,,,0.00,0,weatherlink.com 1.10,2013-03-16 10:17:00,
2013-03-16 06:31:00,66.1,-99.9,29.96,West,274,0.0,2.0,0,0.00,,,0.00,0,weatherlink.com 1.10,2013-03-16 10:31:00,
2013-03-16 06:47:00,66.3,-99.9,29.96,North,11,1.0,2.0,0,0.00,,,0.00,16,weatherlink.com 1.10,2013-03-16 10:47:00,
2013-03-16 07:02:00,66.5,-99.9,29.96,North,11,0.0,1.0,0,0.00,,,0.00,46,weatherlink.com 1.10,2013-03-16 11:02:00,
2013-03-16 07:17:00,66.5,-99.9,29.97,North,11,0.0,1.0,0,0.00,,,0.00,109,weatherlink.com 1.10,2013-03-16 11:17:00,
2013-03-16 07:32:00,67.9,-99.9,29.98,North,11,0.0,1.0,0,0.00,,,0.00,158,weatherlink.com 1.10,2013-03-16 11:32:00,
2013-03-16 07:47:00,68.4,-99.9,29.98,North,11,0.0,1.0,0,0.00,,,0.00,216,weatherlink.com 1.10,2013-03-16 11:47:00,
2013-03-16 08:02:00,69.2,-99.9,29.98,North,11,0.0,2.0,0,0.00,,,0.00,272,weatherlink.com 1.10,2013-03-16 12:02:00,
2013-03-16 08:17:00,69.9,-99.9,29.99,North,11,0.0,3.0,0,0.00,,,0.00,332,weatherlink.com 1.10,2013-03-16 12:17:00,
2013-03-16 08:32:00,70.4,-99.9,29.99,North,11,0.0,1.0,0,0.00,,,0.00,388,weatherlink.com 1.10,2013-03-16 12:32:00,
2013-03-16 08:47:00,72.5,-99.9,30.00,North,11,0.0,1.0,0,0.00,,,0.00,443,weatherlink.com 1.10,2013-03-16 12:47:00,
2013-03-16 09:02:00,74.8,24.0,30.00,NE,51,1.0,4.0,15,0.00,,,0.00,403,weatherlink.com 1.10,2013-03-16 13:02:00,
2013-03-16 09:17:00,76.2,42.0,30.01,NE,49,0.0,4.0,29,0.00,,,0.00,243,weatherlink.com 1.10,2013-03-16 13:17:00,
2013-03-16 09:32:00,75.8,43.0,30.01,NE,49,0.0,3.0,31,0.00,,,0.00,308,weatherlink.com 1.10,2013-03-16 13:32:00,
2013-03-16 09:47:00,76.0,39.0,30.01,NE,49,0.0,1.0,26,0.00,,,0.00,204,weatherlink.com 1.10,2013-03-16 13:47:00,
2013-03-16 10:03:00,76.0,41.0,30.01,NE,54,0.0,3.0,28,0.00,,,0.00,327,weatherlink.com 1.10,2013-03-16 14:03:00,
2013-03-16 10:18:00,77.1,42.0,30.01,ENE,65,0.0,3.0,28,0.00,,,0.00,345,weatherlink.com 1.10,2013-03-16 14:18:00,
2013-03-16 10:33:00,77.4,50.0,30.01,ENE,58,2.0,4.0,39,0.00,,,0.00,378,weatherlink.com 1.10,2013-03-16 14:33:00,
2013-03-16 10:48:00,78.3,51.0,30.01,ESE,108,0.0,3.0,39,0.00,,,0.00,515,weatherlink.com 1.10,2013-03-16 14:48:00,
2013-03-16 11:03:00,78.4,53.0,30.01,East,98,0.0,4.0,41,0.00,,,0.00,244,weatherlink.com 1.10,2013-03-16 15:03:00,
2013-03-16 11:18:00,78.3,53.0,30.00,ESE,115,1.0,7.0,42,0.00,,,0.00,436,weatherlink.com 1.10,2013-03-16 15:18:00,
2013-03-16 11:33:00,80.9,57.0,30.00,East,87,0.0,6.0,44,0.00,,,0.00,615,weatherlink.com 1.10,2013-03-16 15:33:00,
2013-03-16 11:48:00,81.6,58.0,29.99,SE,128,0.0,4.0,45,0.00,,,0.00,468,weatherlink.com 1.10,2013-03-16 15:48:00,
2013-03-16 12:03:00,80.1,57.0,29.98,ENE,66,0.0,5.0,46,0.00,,,0.00,378,weatherlink.com 1.10,2013-03-16 16:03:00,
2013-03-16 12:18:00,79.5,57.0,29.97,ENE,59,2.0,8.0,46,0.00,,,0.00,257,weatherlink.com 1.10,2013-03-16 16:18:00,
2013-03-16 12:33:00,79.8,57.0,29.96,East,86,0.0,5.0,46,0.00,,,0.00,371,weatherlink.com 1.10,2013-03-16 16:33:00,
2013-03-16 12:48:00,80.7,58.0,29.95,East,101,0.0,7.0,46,0.00,,,0.00,559,weatherlink.com 1.10,2013-03-16 16:48:00,
2013-03-16 13:03:00,81.1,58.0,29.95,North,5,0.0,5.0,46,0.00,,,0.00,278,weatherlink.com 1.10,2013-03-16 17:03:00,
2013-03-16 13:18:00,80.2,58.0,29.94,East,83,2.0,6.0,47,0.00,,,0.00,186,weatherlink.com 1.10,2013-03-16 17:18:00,
2013-03-16 13:34:00,80.3,58.0,29.94,NNE,12,0.0,4.0,47,0.00,,,0.00,230,weatherlink.com 1.10,2013-03-16 17:34:00,
2013-03-16 13:49:00,80.1,58.0,29.94,ENE,57,0.0,5.0,47,0.00,,,0.00,251,weatherlink.com 1.10,2013-03-16 17:49:00,
2013-03-16 14:04:00,79.9,57.0,29.93,ENE,58,2.0,9.0,46,0.00,,,0.00,279,weatherlink.com 1.10,2013-03-16 18:04:00,
2013-03-16 14:19:00,78.9,56.0,29.93,NE,56,0.0,13.0,46,0.00,,,0.00,178,weatherlink.com 1.10,2013-03-16 18:19:00,
2013-03-16 14:49:00,78.1,45.0,29.93,North,11,7.0,11.0,31,0.00,,,0.00,306,weatherlink.com 1.10,2013-03-16 18:49:00,
2013-03-16 15:04:00,78.5,49.0,29.93,NE,46,5.0,10.0,35,0.00,,,0.00,327,weatherlink.com 1.10,2013-03-16 19:04:00,
2013-03-16 15:19:00,78.4,49.0,29.93,ENE,74,0.0,9.0,36,0.00,,,0.00,327,weatherlink.com 1.10,2013-03-16 19:19:00,
2013-03-16 15:34:00,78.7,-3.0,29.93,North,5,3.0,8.0,4,0.00,,,0.00,911,weatherlink.com 1.10,2013-03-16 19:34:00,
2013-03-16 15:49:00,72.3,-99.9,29.93,NE,43,4.0,13.0,0,0.02,,,0.02,156,weatherlink.com 1.10,2013-03-16 19:49:00,
2013-03-16 16:04:00,70.9,-99.9,29.93,North,11,3.0,10.0,0,0.02,,,0.02,167,weatherlink.com 1.10,2013-03-16 20:04:00,
2013-03-16 16:19:00,70.4,-99.9,29.94,SSE,154,0.0,5.0,0,0.03,,,0.03,135,weatherlink.com 1.10,2013-03-16 20:19:00,
2013-03-16 16:34:00,70.6,-99.9,29.94,SSE,154,2.0,2.0,0,0.03,,,0.00,76,weatherlink.com 1.10,2013-03-16 20:34:00,
2013-03-16 16:50:00,70.2,-99.9,29.94,SSE,154,0.0,3.0,0,0.01,,,0.00,84,weatherlink.com 1.10,2013-03-16 20:50:00,
2013-03-16 17:05:00,69.9,-99.9,29.95,SSE,154,1.0,4.0,0,0.01,,,0.00,105,weatherlink.com 1.10,2013-03-16 21:05:00,
2013-03-16 17:20:00,70.8,-99.9,29.95,East,89,0.0,2.0,0,0.00,,,0.00,88,weatherlink.com 1.10,2013-03-16 21:20:00,
2013-03-16 17:35:00,70.7,-99.9,29.95,East,89,0.0,3.0,0,0.00,,,0.00,86,weatherlink.com 1.10,2013-03-16 21:35:00,
2013-03-16 17:50:00,70.6,-99.9,29.95,NW,313,0.0,5.0,0,0.00,,,0.00,67,weatherlink.com 1.10,2013-03-16 21:50:00,
2013-03-16 18:05:00,70.6,-99.9,29.96,ENE,57,0.0,8.0,0,0.00,,,0.00,28,weatherlink.com 1.10,2013-03-16 22:05:00,
2013-03-16 18:20:00,70.4,-99.9,29.96,NNE,19,4.0,8.0,0,0.00,,,0.00,16,weatherlink.com 1.10,2013-03-16 22:20:00,
2013-03-16 18:35:00,70.1,-99.9,29.97,North,5,4.0,8.0,0,0.00,,,0.00,0,weatherlink.com 1.10,2013-03-16 22:35:00,
2013-03-16 18:50:00,69.7,-99.9,29.97,NNE,17,3.0,5.0,0,0.00,,,0.00,0,weatherlink.com 1.10,2013-03-16 22:50:00,
2013-03-16 19:05:00,69.6,-99.9,29.98,North,10,1.0,4.0,0,0.00,,,0.00,0,weatherlink.com 1.10,2013-03-16 23:05:00,
2013-03-16 19:20:00,69.4,-99.9,29.98,NNE,19,2.0,7.0,0,0.00,,,0.00,0,weatherlink.com 1.10,2013-03-16 23:20:00,
2013-03-16 19:35:00,69.3,-99.9,29.99,North,5,2.0,5.0,0,0.00,,,0.00,0,weatherlink.com 1.10,2013-03-16 23:35:00,
2013-03-16 19:50:00,69.3,-99.9,30.00,North,360,2.0,7.0,0,0.00,,,0.00,0,weatherlink.com 1.10,2013-03-16 23:50:00,
2013-03-16 20:06:00,69.3,-99.9,30.00,NNW,333,2.0,4.0,0,0.00,,,0.00,0,weatherlink.com 1.10,2013-03-17 00:06:00,
2013-03-16 20:21:00,69.3,-99.9,30.01,NNW,333,0.0,2.0,0,0.00,,,0.00,0,weatherlink.com 1.10,2013-03-17 00:21:00,
2013-03-16 21:21:00,69.1,-99.9,30.03,NNW,333,0.0,2.0,0,0.00,,,0.00,0,weatherlink.com 1.10,2013-03-17 01:21:00,
2013-03-16 22:06:00,68.7,-99.9,30.03,East,94,0.0,7.0,0,0.00,,,0.00,0,weatherlink.com 1.10,2013-03-17 02:06:00,
2013-03-16 22:21:00,68.3,-99.9,30.03,East,94,0.0,2.0,0,0.00,,,0.00,0,weatherlink.com 1.10,2013-03-17 02:21:00,
2013-03-16 22:36:00,68.5,-99.9,30.03,NE,55,0.0,5.0,0,0.00,,,0.00,0,weatherlink.com 1.10,2013-03-17 02:36:00,
2013-03-16 22:51:00,68.5,-99.9,30.03,NE,55,0.0,1.0,0,0.00,,,0.00,0,weatherlink.com 1.10,2013-03-17 02:51:00,
2013-03-16 23:06:00,68.4,-99.9,30.03,NE,55,0.0,2.0,0,0.00,,,0.00,0,weatherlink.com 1.10,2013-03-17 03:06:00,
2013-03-16 23:21:00,68.5,-99.9,30.03,NE,55,0.0,1.0,0,0.00,,,0.00,0,weatherlink.com 1.10,2013-03-17 03:21:00,
2013-03-16 23:37:00,68.5,-99.9,30.03,NE,55,1.0,1.0,0,0.00,,,0.00,0,weatherlink.com 1.10,2013-03-17 03:37:00,
2013-03-16 23:52:00,68.6,-99.9,30.03,NE,55,0.0,2.0,0,0.00,,,0.00,0,weatherlink.com 1.10,2013-03-17 03:52:00,